Time;durP1;ratioP1;P1;durP2;ratioP2;P2;SDS_P1;SDS_P2;PMS_P1;PMS_P2;Temp;Humidity;BMP_temperature;BMP_pressure;BME280_temperature;BME280_humidity;BME280_pressure;Samples;Min_cycle;Max_cycle;Signal;HPM_P1;HPM_P2
2022/09/22 00:01:51;;;;;;;2.53;2.33;;;;;;;13.25;66.26;99617.59;5073083;28;20192;-60
2022/09/22 00:04:18;;;;;;;2.97;2.77;;;;;;;13.30;65.88;99617.78;5072986;28;20736;-60
2022/09/22 00:06:47;;;;;;;2.53;2.43;;;;;;;13.24;65.89;99605.31;5073461;28;20200;-60
2022/09/22 00:09:19;;;;;;;2.80;2.70;;;;;;;13.24;65.82;99616.78;5072749;28;20224;-61
2022/09/22 00:11:48;;;;;;;3.73;2.90;;;;;;;13.19;66.28;99611.25;5073014;28;20184;-61
2022/09/22 00:14:19;;;;;;;2.60;2.50;;;;;;;13.20;65.98;99610.25;5073786;28;20188;-61
2022/09/22 00:16:48;;;;;;;2.50;2.40;;;;;;;13.15;66.57;99604.69;5072889;28;20691;-61
2022/09/22 00:19:16;;;;;;;2.67;2.57;;;;;;;13.13;66.63;99612.09;5073059;28;20199;-61
2022/09/22 00:21:43;;;;;;;2.80;2.60;;;;;;;13.19;66.28;99611.25;5053016;28;20668;-61
2022/09/22 00:24:10;;;;;;;2.43;2.33;;;;;;;13.19;66.41;99600.59;5052706;28;20673;-61
2022/09/22 00:26:39;;;;;;;2.40;2.30;;;;;;;13.08;66.87;99603.91;5052970;28;20246;-60
2022/09/22 00:29:08;;;;;;;2.60;2.50;;;;;;;13.08;67.16;99593.25;5052886;28;20189;-61
2022/09/22 00:31:35;;;;;;;2.83;2.73;;;;;;;13.04;67.27;99597.38;5052611;28;20737;-60
2022/09/22 00:34:02;;;;;;;2.60;2.50;;;;;;;13.03;67.27;99595.69;5053253;28;20603;-61
2022/09/22 00:36:30;;;;;;;2.30;2.20;;;;;;;13.05;67.16;99599.00;5052785;28;20223;-60
2022/09/22 00:38:58;;;;;;;2.33;2.23;;;;;;;12.87;67.46;99603.31;5052482;28;20287;-61
2022/09/22 00:41:27;;;;;;;2.23;2.13;;;;;;;12.91;67.54;99602.66;5052779;28;20193;-61
2022/09/22 00:44:29;;;;;;;2.63;2.53;;;;;;;12.83;67.79;99600.22;5052386;28;20199;-60
2022/09/22 00:47:02;;;;;;;2.23;2.13;;;;;;;12.72;68.51;99597.38;5049255;28;20687;-61
2022/09/22 00:49:37;;;;;;;2.17;2.07;;;;;;;12.61;68.44;99606.81;5053012;28;20251;-61
2022/09/22 00:52:05;;;;;;;2.50;2.40;;;;;;;12.83;67.80;99594.88;5052823;28;20191;-61
2022/09/22 00:54:32;;;;;;;2.37;2.27;;;;;;;12.83;67.80;99600.22;5051626;28;20200;-62
2022/09/22 00:57:07;;;;;;;3.00;2.50;;;;;;;12.75;68.08;99581.81;5052512;28;20220;-61
2022/09/22 00:59:35;;;;;;;2.70;2.60;;;;;;;12.81;68.16;99596.97;5052660;28;20184;-61
2022/09/22 01:02:03;;;;;;;2.60;2.50;;;;;;;12.69;68.78;99600.44;5052108;28;20203;-61
2022/09/22 01:04:30;;;;;;;2.77;2.60;;;;;;;12.63;68.64;99599.47;5052053;28;20193;-61
2022/09/22 01:06:59;;;;;;;2.70;2.60;;;;;;;12.68;69.05;99596.97;5052694;28;20266;-61
2022/09/22 01:09:27;;;;;;;2.60;2.50;;;;;;;12.70;68.95;99594.91;5051588;28;20576;-61
2022/09/22 01:11:54;;;;;;;2.80;2.70;;;;;;;12.71;68.92;99607.25;5052324;28;20625;-61
2022/09/22 01:14:31;;;;;;;3.43;2.70;;;;;;;12.82;68.74;99603.13;5051948;28;20660;-62
2022/09/22 01:17:12;;;;;;;2.67;2.57;;;;;;;12.71;69.31;99601.91;5052804;28;20209;-61
2022/09/22 01:20:15;;;;;;;3.20;3.10;;;;;;;12.58;69.73;99609.09;5054195;28;20663;-60
2022/09/22 01:23:01;;;;;;;2.77;2.67;;;;;;;12.59;70.16;99598.22;5071862;28;20192;-61
2022/09/22 01:26:01;;;;;;;6.03;2.97;;;;;;;12.58;70.37;99601.09;5072245;28;20241;-61
2022/09/22 01:28:46;;;;;;;2.70;2.60;;;;;;;12.61;70.80;99601.50;5072719;28;20184;-61
2022/09/22 01:31:19;;;;;;;3.30;3.10;;;;;;;12.70;70.26;99597.59;5072181;28;20184;-60
2022/09/22 01:33:52;;;;;;;2.87;2.73;;;;;;;12.65;70.92;99585.91;5072104;28;20188;-60
2022/09/22 01:36:25;;;;;;;3.20;3.10;;;;;;;12.66;71.00;99598.22;5071686;28;20772;-61
2022/09/22 01:39:01;;;;;;;2.50;2.40;;;;;;;12.59;71.29;99592.91;5071771;28;20233;-61
2022/09/22 01:41:46;;;;;;;3.00;2.80;;;;;;;12.54;71.45;99598.00;5071765;28;20286;-61
2022/09/22 01:44:20;;;;;;;3.30;3.10;;;;;;;12.51;71.57;99600.28;5072557;28;20187;-61
2022/09/22 01:46:54;;;;;;;3.03;2.77;;;;;;;12.58;71.13;99596.56;5072084;28;20192;-61
2022/09/22 01:49:23;;;;;;;2.77;2.63;;;;;;;12.58;71.07;99607.22;5071710;28;20190;-61
2022/09/22 01:51:53;;;;;;;2.90;2.70;;;;;;;12.50;71.19;99594.09;5071515;28;20192;-63
2022/09/22 01:54:24;;;;;;;5.00;2.80;;;;;;;12.53;71.28;99598.22;5072325;28;20184;-61
2022/09/22 01:56:58;;;;;;;3.07;2.90;;;;;;;12.64;70.34;99603.75;5071496;28;20215;-62
2022/09/22 01:59:29;;;;;;;2.80;2.60;;;;;;;12.63;70.48;99599.47;5072157;28;20186;-62
2022/09/22 02:02:03;;;;;;;3.70;3.10;;;;;;;12.64;70.74;99589.59;5071562;28;20180;-61
2022/09/22 02:04:35;;;;;;;2.97;2.87;;;;;;;12.56;70.65;99587.97;5072269;28;20603;-61
2022/09/22 02:07:05;;;;;;;2.93;2.57;;;;;;;12.50;70.40;99583.44;5073317;28;20196;-61
2022/09/22 02:09:34;;;;;;;2.80;2.70;;;;;;;12.51;70.84;99579.78;5075783;28;20236;-63
2022/09/22 02:12:02;;;;;;;2.80;2.60;;;;;;;12.50;70.73;99580.78;5075221;28;20200;-61
2022/09/22 02:14:30;;;;;;;2.90;2.70;;;;;;;12.44;70.77;99584.28;5076422;28;20201;-61
2022/09/22 02:16:59;;;;;;;2.77;2.57;;;;;;;12.37;71.13;99583.47;5074971;28;20281;-61
2022/09/22 02:19:30;;;;;;;2.80;2.63;;;;;;;12.35;70.60;99582.88;5073879;28;20549;-62
2022/09/22 02:21:58;;;;;;;2.63;2.53;;;;;;;12.32;71.03;99590.41;5055080;28;20191;-61
2022/09/22 02:24:27;;;;;;;2.80;2.70;;;;;;;12.29;71.27;99589.00;5055088;28;20261;-61
2022/09/22 02:26:56;;;;;;;2.73;2.63;;;;;;;12.22;71.42;99593.53;5055175;28;20342;-61
2022/09/22 02:29:24;;;;;;;2.20;2.10;;;;;;;12.18;71.66;99589.63;5054310;28;20203;-64
2022/09/22 02:31:51;;;;;;;2.20;2.10;;;;;;;12.17;71.72;99590.63;5054596;28;20226;-61
2022/09/22 02:34:20;;;;;;;2.10;2.00;;;;;;;12.22;71.57;99595.34;5055155;28;20198;-61
2022/09/22 02:36:56;;;;;;;1.87;1.80;;;;;;;12.20;71.72;99594.72;5054679;28;20220;-61
2022/09/22 02:39:29;;;;;;;2.30;2.20;;;;;;;12.31;71.11;99592.28;5055464;28;20264;-62
2022/09/22 02:42:15;;;;;;;2.30;2.20;;;;;;;12.35;70.98;99584.69;5055267;28;20185;-61
2022/09/22 02:44:48;;;;;;;2.10;2.00;;;;;;;12.28;71.72;99583.88;5055280;28;20278;-61
2022/09/22 02:47:19;;;;;;;2.60;2.40;;;;;;;12.26;71.54;99584.09;5054650;28;20614;-61
2022/09/22 02:49:50;;;;;;;2.60;2.50;;;;;;;12.22;71.90;99582.88;5055012;28;20187;-61
2022/09/22 02:52:20;;;;;;;2.50;2.40;;;;;;;12.05;72.50;99578.94;5054718;28;20624;-61
2022/09/22 02:54:47;;;;;;;2.57;2.47;;;;;;;12.08;72.60;99580.41;5055293;28;20312;-61
2022/09/22 02:57:13;;;;;;;2.60;2.50;;;;;;;12.06;72.55;99583.25;5054802;28;20229;-61
2022/09/22 02:59:40;;;;;;;2.33;2.20;;;;;;;12.00;72.87;99578.72;5054745;28;20255;-61
2022/09/22 03:02:07;;;;;;;2.43;2.33;;;;;;;11.95;73.31;99583.00;5054734;28;20555;-61
2022/09/22 03:04:34;;;;;;;2.47;2.30;;;;;;;12.07;73.00;99582.22;5054684;28;20195;-60
2022/09/22 03:07:02;;;;;;;2.63;2.53;;;;;;;12.10;72.66;99587.16;5054230;28;20200;-60
2022/09/22 03:09:29;;;;;;;2.53;2.43;;;;;;;12.09;72.69;99590.00;5054781;28;20369;-60
2022/09/22 03:11:56;;;;;;;2.30;2.20;;;;;;;12.15;72.71;99589.19;5054422;28;20202;-60
2022/09/22 03:14:22;;;;;;;2.77;2.53;;;;;;;12.25;72.49;99587.75;5054208;28;20249;-60
2022/09/22 03:16:49;;;;;;;2.80;2.70;;;;;;;12.26;72.28;99594.75;5054276;28;20681;-60
2022/09/22 03:19:16;;;;;;;2.50;2.40;;;;;;;12.26;72.46;99592.09;5053197;28;20197;-61
2022/09/22 03:21:42;;;;;;;2.53;2.40;;;;;;;12.28;72.33;99592.69;5073316;28;20636;-60
2022/09/22 03:24:10;;;;;;;2.67;2.57;;;;;;;12.26;72.63;99592.09;5073963;28;20664;-61
2022/09/22 03:26:37;;;;;;;2.93;2.83;;;;;;;12.24;72.37;99591.44;5073890;28;20195;-61
2022/09/22 03:29:05;;;;;;;2.70;2.60;;;;;;;12.17;73.12;99598.59;5073868;28;20663;-60
2022/09/22 03:31:31;;;;;;;3.47;3.00;;;;;;;12.09;73.60;99596.13;5073400;28;20195;-61
2022/09/22 03:33:58;;;;;;;2.90;2.80;;;;;;;12.15;73.49;99599.84;5074025;28;20203;-61
2022/09/22 03:36:25;;;;;;;2.80;2.70;;;;;;;12.05;73.65;99594.09;5073790;28;20200;-60
2022/09/22 03:38:52;;;;;;;3.20;3.00;;;;;;;12.06;74.11;99598.41;5073405;28;20400;-60
2022/09/22 03:41:20;;;;;;;3.40;3.27;;;;;;;12.00;74.25;99597.38;5073487;28;20261;-61
2022/09/22 03:43:47;;;;;;;3.50;3.30;;;;;;;11.92;74.40;99586.91;5073439;28;20666;-61
2022/09/22 03:46:13;;;;;;;3.63;3.43;;;;;;;12.06;74.59;99599.22;5073726;28;20194;-61
2022/09/22 03:48:40;;;;;;;3.10;2.83;;;;;;;12.01;74.73;99601.66;5073509;28;20281;-61
2022/09/22 03:51:07;;;;;;;3.20;3.00;;;;;;;12.01;74.87;99599.00;5073723;28;20261;-61
2022/09/22 03:53:35;;;;;;;3.70;3.40;;;;;;;11.96;75.23;99608.63;5073223;28;20200;-61
2022/09/22 03:56:07;;;;;;;3.57;3.37;;;;;;;11.95;75.35;99617.63;5073258;28;20679;-61
2022/09/22 03:58:36;;;;;;;4.17;3.87;;;;;;;11.91;75.67;99617.22;5073182;28;20279;-61
2022/09/22 04:01:03;;;;;;;3.77;3.57;;;;;;;11.87;75.75;99618.63;5073512;28;20201;-60
2022/09/22 04:03:30;;;;;;;3.60;3.47;;;;;;;11.91;75.84;99629.69;5073450;28;20331;-60
2022/09/22 04:05:57;;;;;;;4.03;3.73;;;;;;;11.90;75.86;99617.41;5073296;28;20194;-60
2022/09/22 04:08:24;;;;;;;3.53;3.33;;;;;;;11.92;76.07;99621.50;5073115;28;20261;-63
2022/09/22 04:10:51;;;;;;;4.50;3.63;;;;;;;11.90;76.09;99628.88;5073263;28;20187;-61
2022/09/22 04:13:18;;;;;;;4.47;4.27;;;;;;;12.01;75.62;99632.81;5073230;28;20192;-61
2022/09/22 04:15:46;;;;;;;4.17;3.97;;;;;;;11.98;75.73;99626.03;5073232;28;20256;-61
2022/09/22 04:18:14;;;;;;;5.07;3.83;;;;;;;12.01;75.50;99630.94;5073028;28;20228;-61
2022/09/22 04:20:43;;;;;;;3.90;3.70;;;;;;;12.08;75.41;99626.47;5073082;28;20276;-61
2022/09/22 04:23:10;;;;;;;4.10;3.90;;;;;;;12.04;75.39;99625.22;5072799;28;20197;-60
2022/09/22 04:25:36;;;;;;;4.07;3.87;;;;;;;12.02;75.33;99627.28;5072809;28;20192;-60
2022/09/22 04:28:04;;;;;;;3.63;3.43;;;;;;;12.01;75.67;99622.16;5072913;28;20202;-61
2022/09/22 04:30:31;;;;;;;3.80;3.60;;;;;;;12.00;75.69;99623.97;5071974;28;20244;-61
2022/09/22 04:32:59;;;;;;;4.27;3.87;;;;;;;12.10;75.64;99629.75;5073161;28;20198;-61
2022/09/22 04:35:27;;;;;;;4.07;3.87;;;;;;;12.32;74.80;99633.88;5072340;28;20721;-61
2022/09/22 04:37:54;;;;;;;4.07;3.80;;;;;;;12.75;73.34;99629.78;5072401;28;20602;-61
2022/09/22 04:40:21;;;;;;;4.13;3.73;;;;;;;13.25;71.44;99637.09;5073364;28;20215;-61
2022/09/22 04:42:48;;;;;;;3.87;3.47;;;;;;;13.53;69.63;99629.63;5072675;28;20249;-61
2022/09/22 04:45:15;;;;;;;3.83;3.30;;;;;;;13.83;68.17;99637.88;5072501;28;20238;-61
2022/09/22 04:47:44;;;;;;;3.40;3.20;;;;;;;14.13;66.70;99634.44;5073027;28;20196;-61
2022/09/22 04:50:12;;;;;;;4.83;3.20;;;;;;;14.52;65.50;99644.06;5072508;28;20245;-61
2022/09/22 04:52:39;;;;;;;3.60;3.30;;;;;;;14.81;64.11;99641.56;5072175;28;20680;-61
2022/09/22 04:55:07;;;;;;;3.50;3.20;;;;;;;15.13;63.64;99653.81;5072063;28;20195;-61
2022/09/22 04:57:34;;;;;;;2.97;2.87;;;;;;;15.35;61.32;99643.50;5071856;28;20729;-62
2022/09/22 05:00:01;;;;;;;2.83;2.73;;;;;;;15.55;60.83;99644.91;5072483;28;20192;-62
2022/09/22 05:02:27;;;;;;;2.83;2.60;;;;;;;15.78;59.59;99658.44;5071939;28;20192;-62
2022/09/22 05:04:54;;;;;;;5.57;3.00;;;;;;;16.11;58.97;99660.69;5072858;28;20250;-62
2022/09/22 05:07:22;;;;;;;3.13;3.00;;;;;;;16.32;57.40;99651.28;5071927;28;20667;-61
2022/09/22 05:09:49;;;;;;;2.67;2.57;;;;;;;16.42;57.12;99656.97;5072379;28;20596;-62
2022/09/22 05:12:16;;;;;;;2.63;2.53;;;;;;;16.60;56.40;99663.06;5072315;28;20199;-61
2022/09/22 05:14:43;;;;;;;3.00;2.90;;;;;;;16.39;56.50;99663.56;5072442;28;20265;-61
2022/09/22 05:17:09;;;;;;;2.87;2.67;;;;;;;16.30;57.45;99664.97;5071836;28;20737;-61
2022/09/22 05:19:36;;;;;;;3.27;3.17;;;;;;;16.52;56.27;99658.03;5069815;28;20188;-61
2022/09/22 05:22:03;;;;;;;4.63;3.67;;;;;;;16.68;56.25;99665.41;5051874;28;20742;-61
2022/09/22 05:24:31;;;;;;;3.27;2.90;;;;;;;16.73;55.61;99667.38;5052068;28;20200;-61
2022/09/22 05:26:58;;;;;;;2.90;2.80;;;;;;;17.06;54.76;99663.13;5052401;28;20284;-61
2022/09/22 05:29:26;;;;;;;2.60;2.50;;;;;;;17.33;54.25;99661.59;5051976;28;20279;-61
2022/09/22 05:31:53;;;;;;;3.60;2.93;;;;;;;17.44;53.07;99658.09;5051512;28;20203;-62
2022/09/22 05:34:20;;;;;;;3.30;3.03;;;;;;;17.55;52.30;99662.63;5056796;28;20227;-61
2022/09/22 05:36:47;;;;;;;3.33;2.90;;;;;;;17.67;52.82;99662.59;5062247;28;20246;-62
2022/09/22 05:39:13;;;;;;;5.23;2.83;;;;;;;18.02;51.41;99666.00;5062920;28;20229;-61
2022/09/22 05:41:41;;;;;;;3.60;3.10;;;;;;;18.00;51.44;99652.81;5062914;28;20623;-65
2022/09/22 05:44:08;;;;;;;3.53;3.20;;;;;;;18.20;50.51;99652.34;5063601;28;20189;-65
2022/09/22 05:46:35;;;;;;;3.10;2.90;;;;;;;18.60;49.64;99655.81;5075735;28;20188;-65
2022/09/22 05:49:02;;;;;;;5.10;3.30;;;;;;;18.71;48.66;99665.69;5075999;28;20257;-65
2022/09/22 05:51:28;;;;;;;3.10;2.80;;;;;;;18.53;48.79;99663.19;5075756;28;20192;-65
2022/09/22 05:53:55;;;;;;;4.20;2.77;;;;;;;18.64;49.32;99659.63;5075746;28;20193;-63
2022/09/22 05:56:22;;;;;;;2.80;2.70;;;;;;;18.69;47.98;99670.47;5075384;28;20199;-64
2022/09/22 05:58:50;;;;;;;3.13;2.93;;;;;;;18.82;47.90;99662.91;5075727;28;20273;-65
2022/09/22 06:01:17;;;;;;;3.27;2.70;;;;;;;18.65;47.65;99667.47;5066243;28;20198;-63
2022/09/22 06:03:43;;;;;;;3.10;2.90;;;;;;;18.45;48.68;99671.66;5064730;28;20194;-63
2022/09/22 06:06:10;;;;;;;4.00;3.00;;;;;;;18.88;47.88;99672.72;5064708;28;20190;-63
2022/09/22 06:08:37;;;;;;;2.97;2.77;;;;;;;19.16;46.18;99666.41;5065736;28;20193;-64
2022/09/22 06:11:03;;;;;;;7.10;3.07;;;;;;;19.32;45.92;99679.06;5063390;28;20195;-63
2022/09/22 06:13:30;;;;;;;6.27;2.70;;;;;;;19.31;45.75;99675.53;5070083;28;20188;-64
2022/09/22 06:16:00;;;;;;;3.17;2.90;;;;;;;19.52;45.40;99674.75;5059409;28;20283;-64
2022/09/22 06:18:27;;;;;;;9.30;3.10;;;;;;;19.50;44.67;99676.06;5062783;28;20624;-64
2022/09/22 06:20:55;;;;;;;6.07;2.70;;;;;;;20.00;46.38;99671.31;5067711;28;20255;-64
2022/09/22 06:23:22;;;;;;;5.03;2.47;;;;;;;20.41;43.02;99668.00;5057797;28;20193;-64
2022/09/22 06:25:49;;;;;;;7.57;2.83;;;;;;;19.69;43.52;99672.03;5054882;28;20251;-65
2022/09/22 06:28:16;;;;;;;4.53;2.90;;;;;;;19.49;43.90;99669.06;5055170;28;20255;-65
2022/09/22 06:30:42;;;;;;;5.00;2.53;;;;;;;19.73;44.28;99670.44;5055163;28;20193;-65
2022/09/22 06:33:11;;;;;;;2.30;2.10;;;;;;;19.11;44.32;99669.81;5054443;28;20249;-65
2022/09/22 06:35:41;;;;;;;5.10;2.77;;;;;;;19.07;45.09;99670.56;5054712;28;20659;-64
2022/09/22 06:38:13;;;;;;;4.00;2.67;;;;;;;19.42;44.30;99673.78;5055024;28;20282;-64
2022/09/22 06:40:41;;;;;;;11.57;3.50;;;;;;;19.10;44.91;99675.44;5055054;28;20540;-64
2022/09/22 06:43:14;;;;;;;3.37;2.17;;;;;;;18.88;45.65;99675.41;5054949;28;20292;-64
2022/09/22 06:45:41;;;;;;;2.83;2.40;;;;;;;18.84;45.71;99670.75;5054386;28;20640;-64
2022/09/22 06:48:09;;;;;;;3.03;2.20;;;;;;;19.00;45.16;99673.44;5055678;28;20267;-65
2022/09/22 06:50:39;;;;;;;2.27;2.17;;;;;;;18.83;45.77;99677.19;5061919;28;20614;-66
2022/09/22 06:53:10;;;;;;;2.60;2.40;;;;;;;19.20;44.91;99678.31;5073120;28;20629;-65
2022/09/22 06:55:37;;;;;;;2.33;2.20;;;;;;;19.09;45.47;99681.91;5069811;28;20207;-65
2022/09/22 06:58:03;;;;;;;3.50;2.20;;;;;;;19.20;45.43;99671.03;5073683;28;20247;-65
2022/09/22 07:00:31;;;;;;;2.17;2.07;;;;;;;19.62;44.42;99674.06;5074455;28;20211;-65
2022/09/22 07:03:05;;;;;;;2.30;2.20;;;;;;;19.62;43.85;99684.84;5074283;28;20195;-66
2022/09/22 07:05:32;;;;;;;2.37;2.27;;;;;;;19.69;44.05;99674.72;5075044;28;20265;-66
2022/09/22 07:08:00;;;;;;;3.17;2.03;;;;;;;19.88;43.23;99676.84;5072741;28;20200;-66
2022/09/22 07:10:27;;;;;;;2.00;1.90;;;;;;;19.70;43.85;99676.34;5062251;28;20227;-64
2022/09/22 07:12:54;;;;;;;1.90;1.80;;;;;;;19.81;44.04;99673.50;5054520;28;20255;-64
2022/09/22 07:15:21;;;;;;;2.37;1.83;;;;;;;19.51;44.36;99673.13;5054490;28;20195;-65
2022/09/22 07:17:52;;;;;;;4.23;2.13;;;;;;;19.83;43.77;99675.97;5054073;28;20659;-63
2022/09/22 07:20:20;;;;;;;2.20;2.10;;;;;;;19.76;43.81;99669.94;5055223;28;20286;-63
2022/09/22 07:22:47;;;;;;;6.80;2.70;;;;;;;19.81;43.92;99672.72;5062411;28;20195;-64
2022/09/22 07:25:16;;;;;;;3.40;2.20;;;;;;;19.72;44.45;99671.50;5056240;28;20196;-64
2022/09/22 07:27:42;;;;;;;5.10;2.23;;;;;;;19.98;43.31;99673.44;5064785;28;20281;-63
2022/09/22 07:30:12;;;;;;;3.57;1.87;;;;;;;20.03;43.29;99662.72;5054405;28;20259;-67
2022/09/22 07:32:38;;;;;;;2.33;2.20;;;;;;;19.94;43.24;99673.13;5053953;28;20200;-65
2022/09/22 07:35:06;;;;;;;3.30;2.23;;;;;;;19.94;43.15;99669.63;5066204;28;20188;-65
2022/09/22 07:37:34;;;;;;;4.07;2.10;;;;;;;19.81;43.86;99670.00;5060484;28;20200;-66
2022/09/22 07:40:02;;;;;;;1.93;1.83;;;;;;;20.07;43.08;99674.63;5053668;28;20231;-67
2022/09/22 07:42:30;;;;;;;2.63;2.00;;;;;;;20.16;42.76;99673.97;5071919;28;20188;-65
2022/09/22 07:45:15;;;;;;;3.57;2.00;;;;;;;20.32;42.72;99669.53;5073536;28;20264;-61
2022/09/22 07:50:28;;;;;;;2.30;1.50;;;;;;;20.68;41.34;99674.19;5068021;28;20206;-61
2022/09/22 07:52:55;;;;;;;2.60;2.50;;;;;;;20.74;41.58;99672.38;5063826;28;20246;-60
2022/09/22 07:55:23;;;;;;;3.53;2.00;;;;;;;20.74;40.91;99677.75;5053414;28;20192;-60
2022/09/22 07:57:56;;;;;;;3.53;2.00;;;;;;;20.98;40.89;99677.16;5053785;28;20185;-61
2022/09/22 08:00:24;;;;;;;3.03;1.80;;;;;;;21.26;40.04;99676.84;5061058;28;20254;-60
2022/09/22 08:02:54;;;;;;;2.43;2.23;;;;;;;21.37;40.09;99673.13;5072116;28;20269;-61
2022/09/22 08:05:21;;;;;;;2.07;1.60;;;;;;;21.28;39.58;99674.69;5053465;28;20287;-61
2022/09/22 08:07:48;;;;;;;2.73;1.87;;;;;;;21.09;39.30;99676.19;5058533;28;20617;-61
2022/09/22 08:10:15;;;;;;;2.60;1.80;;;;;;;21.04;39.50;99673.44;5063185;28;20630;-61
2022/09/22 08:12:42;;;;;;;1.70;1.50;;;;;;;20.95;39.10;99668.78;5063696;28;20191;-61
2022/09/22 08:15:11;;;;;;;1.60;1.50;;;;;;;20.66;38.95;99664.72;5060486;28;20275;-61
2022/09/22 08:17:39;;;;;;;3.27;1.67;;;;;;;20.87;38.89;99666.53;5052938;28;20193;-65
2022/09/22 08:20:08;;;;;;;5.73;2.20;;;;;;;20.86;39.35;99670.31;5050805;28;20719;-63
2022/09/22 08:22:35;;;;;;;1.63;1.47;;;;;;;21.12;39.08;99664.03;5051323;28;20192;-70
2022/09/22 08:25:01;;;;;;;1.77;1.67;;;;;;;21.42;38.86;99658.81;5051649;28;20208;-70
2022/09/22 08:27:29;;;;;;;2.23;1.50;;;;;;;21.68;37.73;99653.28;5052515;28;20283;-70
2022/09/22 08:29:56;;;;;;;2.27;2.07;;;;;;;21.56;38.60;99649.97;5052420;28;20287;-68
2022/09/22 08:32:25;;;;;;;2.00;1.80;;;;;;;21.40;38.76;99650.16;5051560;28;20189;-64
2022/09/22 08:34:56;;;;;;;2.10;2.00;;;;;;;21.89;38.29;99649.59;5051052;28;20656;-64
2022/09/22 08:37:26;;;;;;;2.00;1.80;;;;;;;21.78;37.91;99652.53;5051062;28;20185;-66
2022/09/22 08:39:53;;;;;;;3.67;1.53;;;;;;;21.60;37.76;99648.38;5051021;28;20287;-66
2022/09/22 08:42:22;;;;;;;9.20;2.30;;;;;;;21.81;38.29;99646.59;5050848;28;20197;-65
2022/09/22 08:44:58;;;;;;;4.17;2.03;;;;;;;21.91;37.49;99641.22;5051675;28;20199;-65
2022/09/22 08:53:13;;;;;;;1.97;1.63;;;;;;;22.15;36.55;99643.19;5051016;28;20184;-65
2022/09/22 08:55:44;;;;;;;4.30;1.70;;;;;;;22.30;35.50;99635.09;5051758;28;20242;-65
2022/09/22 08:58:26;;;;;;;1.47;1.47;;;;;;;22.06;36.05;99643.97;5051872;28;20710;-64
2022/09/22 09:01:02;;;;;;;4.43;1.60;;;;;;;22.12;39.59;99627.50;5051686;28;20181;-64
2022/09/22 09:03:44;;;;;;;1.80;1.70;;;;;;;22.67;36.18;99640.31;5050762;28;20184;-67
2022/09/22 09:06:16;;;;;;;1.73;1.43;;;;;;;22.84;35.69;99635.44;5050744;28;20657;-66
2022/09/22 09:08:59;;;;;;;1.80;1.70;;;;;;;22.49;35.16;99632.69;5050411;28;20228;-66
2022/09/22 09:11:35;;;;;;;3.47;1.57;;;;;;;22.25;35.71;99637.00;5051091;28;20188;-64
2022/09/22 09:14:17;;;;;;;1.50;1.40;;;;;;;22.36;34.86;99644.84;5051976;28;20276;-65
2022/09/22 09:16:49;;;;;;;7.70;2.10;;;;;;;22.55;34.92;99632.47;5050989;28;20733;-65
2022/09/22 09:19:29;;;;;;;4.20;1.80;;;;;;;22.68;34.56;99628.38;5051124;28;20196;-66
2022/09/22 09:22:01;;;;;;;5.73;2.13;;;;;;;22.59;34.76;99617.31;5050437;28;20193;-65
2022/09/22 09:24:33;;;;;;;3.80;1.50;;;;;;;22.69;34.86;99611.88;5051475;28;20275;-66
2022/09/22 09:27:08;;;;;;;1.57;1.47;;;;;;;22.92;34.74;99618.63;5052061;28;20196;-65
2022/09/22 09:29:42;;;;;;;1.60;1.50;;;;;;;23.32;34.31;99611.25;5051579;28;20197;-65
2022/09/22 09:32:18;;;;;;;1.80;1.40;;;;;;;22.58;34.10;99612.94;5051235;28;20741;-65
2022/09/22 09:34:48;;;;;;;1.77;1.33;;;;;;;22.66;34.02;99601.56;5051624;28;20185;-65
2022/09/22 09:37:17;;;;;;;2.83;1.30;;;;;;;22.76;34.27;99600.75;5051304;28;20677;-67
2022/09/22 09:39:45;;;;;;;6.37;1.37;;;;;;;23.22;33.11;99596.91;5051271;28;20308;-65
2022/09/22 09:42:19;;;;;;;1.83;1.30;;;;;;;23.28;32.90;99590.41;5051965;28;20573;-65
2022/09/22 09:44:52;;;;;;;2.27;1.40;;;;;;;23.17;32.50;99594.19;5051542;28;20185;-65
2022/09/22 09:47:32;;;;;;;2.73;1.40;;;;;;;23.14;32.01;99582.00;5051761;28;20192;-65
2022/09/22 09:50:00;;;;;;;1.67;1.10;;;;;;;22.92;32.13;99594.25;5051245;28;20193;-65
2022/09/22 09:52:28;;;;;;;0.80;0.80;;;;;;;22.98;32.35;99580.41;5051703;28;20197;-65
2022/09/22 09:54:55;;;;;;;3.70;1.23;;;;;;;23.27;34.29;99586.88;5051205;28;20196;-67
2022/09/22 09:57:23;;;;;;;2.67;1.17;;;;;;;23.30;32.20;99586.31;5051478;28;20666;-64
2022/09/22 10:00:30;;;;;;;1.67;1.10;;;;;;;23.60;32.93;99586.19;5052150;28;20218;-66
2022/09/22 10:03:05;;;;;;;4.57;1.47;;;;;;;23.69;30.91;99578.31;5051793;28;20247;-65
2022/09/22 10:05:36;;;;;;;5.77;1.10;;;;;;;23.38;30.01;99583.03;5052037;28;20254;-65
2022/09/22 10:08:15;;;;;;;2.87;0.90;;;;;;;23.25;30.67;99571.97;5052597;28;20624;-65
2022/09/22 10:10:42;;;;;;;1.00;1.00;;;;;;;23.27;30.25;99581.44;5051341;28;20363;-64
2022/09/22 10:13:30;;;;;;;1.57;0.90;;;;;;;23.70;30.49;99575.31;5051282;28;20189;-65
2022/09/22 10:16:23;;;;;;;1.20;1.20;;;;;;;23.37;30.06;99576.00;5051596;28;20195;-65
2022/09/22 10:18:52;;;;;;;1.30;1.20;;;;;;;22.91;30.72;99569.03;5047234;28;20248;-64
2022/09/22 10:21:21;;;;;;;2.27;1.07;;;;;;;23.07;30.49;99575.25;5067448;28;20189;-65
2022/09/22 10:23:50;;;;;;;1.30;1.27;;;;;;;23.71;30.80;99571.50;5071097;28;20201;-65
2022/09/22 10:26:20;;;;;;;1.07;1.07;;;;;;;23.84;30.58;99570.88;5071173;28;20198;-65
2022/09/22 10:29:07;;;;;;;1.90;1.03;;;;;;;23.57;30.24;99578.59;5074685;28;20187;-65
2022/09/22 10:31:37;;;;;;;1.30;1.20;;;;;;;23.46;29.98;99568.09;5075471;28;20189;-65
2022/09/22 10:34:06;;;;;;;1.10;1.10;;;;;;;23.73;28.96;99568.53;5075149;28;20186;-65
2022/09/22 10:36:43;;;;;;;5.77;1.77;;;;;;;23.88;29.31;99566.53;5074655;28;20233;-65
2022/09/22 10:39:17;;;;;;;5.10;1.53;;;;;;;23.52;30.00;99561.56;5074770;28;20258;-64
2022/09/22 10:41:46;;;;;;;2.43;1.60;;;;;;;23.06;30.28;99558.16;5074907;28;20187;-65
2022/09/22 10:44:18;;;;;;;2.00;1.30;;;;;;;23.16;30.72;99552.72;5074716;28;20610;-65
2022/09/22 10:47:04;;;;;;;2.90;1.30;;;;;;;23.40;29.94;99559.16;5075156;28;20251;-64
2022/09/22 10:49:48;;;;;;;1.97;1.20;;;;;;;23.47;29.08;99558.84;5074998;28;20189;-65
2022/09/22 10:52:24;;;;;;;1.03;0.90;;;;;;;23.58;29.26;99550.41;5074518;28;20185;-64
2022/09/22 10:55:05;;;;;;;1.27;0.90;;;;;;;23.10;29.02;99553.81;5074937;28;20271;-64
2022/09/22 10:57:56;;;;;;;0.90;0.90;;;;;;;23.39;28.36;99549.41;5074694;28;20245;-64
2022/09/22 11:00:25;;;;;;;1.67;1.10;;;;;;;23.69;27.80;99546.53;5074453;28;20700;-64
2022/09/22 11:03:29;;;;;;;0.80;0.80;;;;;;;24.28;29.41;99543.75;5074170;28;20662;-65
2022/09/22 11:12:19;;;;;;;0.70;0.70;;;;;;;24.75;28.29;99555.56;5074319;28;20190;-64
2022/09/22 11:15:12;;;;;;;1.07;0.80;;;;;;;24.65;27.92;99536.66;5074179;28;20240;-64
2022/09/22 11:18:13;;;;;;;1.23;0.97;;;;;;;24.59;27.35;99534.25;5074331;28;20283;-65
2022/09/22 11:20:42;;;;;;;2.57;1.10;;;;;;;24.08;29.07;99530.31;5052044;28;20277;-64
2022/09/22 11:23:29;;;;;;;1.13;1.10;;;;;;;23.79;28.02;99535.66;5053651;28;20587;-64
2022/09/22 11:26:28;;;;;;;1.00;1.00;;;;;;;23.15;28.80;99532.13;5054954;28;20181;-64
2022/09/22 11:29:14;;;;;;;0.93;0.80;;;;;;;23.11;29.03;99522.91;5034037;28;20234;-65
2022/09/22 11:31:46;;;;;;;1.20;1.10;;;;;;;23.00;29.06;99528.66;5053793;28;20189;-64
2022/09/22 11:34:34;;;;;;;0.83;0.83;;;;;;;23.10;28.86;99520.47;5054016;28;20550;-64
2022/09/22 11:37:25;;;;;;;0.83;0.83;;;;;;;23.15;29.35;99524.00;5054009;28;20190;-64
2022/09/22 11:40:06;;;;;;;0.90;0.90;;;;;;;23.42;30.64;99519.03;5053649;28;20210;-64
2022/09/22 11:42:45;;;;;;;1.87;0.90;;;;;;;23.28;28.84;99523.41;5054006;28;20279;-64
2022/09/22 11:45:28;;;;;;;4.87;0.93;;;;;;;23.23;29.35;99519.94;5053446;28;20665;-64
2022/09/22 11:48:09;;;;;;;3.23;1.20;;;;;;;23.40;30.66;99520.41;5053953;28;20256;-64
2022/09/22 11:50:45;;;;;;;3.63;1.23;;;;;;;23.32;29.34;99524.50;5053334;28;20573;-64
2022/09/22 11:53:47;;;;;;;0.80;0.80;;;;;;;23.41;30.41;99512.00;5053882;28;20608;-64
2022/09/22 11:56:37;;;;;;;1.13;0.90;;;;;;;23.63;28.55;99514.31;5036842;28;20735;-64
2022/09/22 11:59:14;;;;;;;1.20;0.73;;;;;;;23.64;29.82;99518.66;5054582;28;20186;-64
2022/09/22 12:01:41;;;;;;;1.23;0.90;;;;;;;23.75;28.43;99523.75;5053059;28;20246;-64
2022/09/22 12:04:20;;;;;;;2.70;0.80;;;;;;;23.85;28.03;99520.94;5053181;28;20674;-64
2022/09/22 12:06:51;;;;;;;1.73;1.03;;;;;;;24.13;28.57;99509.38;5053640;28;20183;-64
2022/09/22 12:09:29;;;;;;;3.53;1.03;;;;;;;24.29;28.31;99519.03;5053144;28;20239;-64